createdAt,value
2022-08-03T00:04:59.894Z,21.64
2022-08-03T00:10:02.549Z,21.39
2022-08-03T00:15:10.384Z,21.26
2022-08-03T00:20:15.314Z,21.76
2022-08-03T00:25:19.320Z,22.11
2022-08-03T00:30:22.211Z,21.72
2022-08-03T00:35:50.054Z,22.10
2022-08-03T00:40:53.555Z,22.72
2022-08-03T00:46:00.006Z,22.52
2022-08-03T00:51:03.345Z,22.54
2022-08-03T00:56:06.283Z,22.09
2022-08-03T01:01:10.079Z,22.00
2022-08-03T01:06:26.523Z,21.52
2022-08-03T01:12:13.706Z,21.67
2022-08-03T01:17:32.792Z,21.50
2022-08-03T01:23:36.588Z,21.60
2022-08-03T01:29:12.633Z,21.41
2022-08-03T01:34:18.038Z,21.56
2022-08-03T01:39:22.774Z,21.60
2022-08-03T01:44:31.027Z,21.41
2022-08-03T01:49:38.139Z,21.53
2022-08-03T01:54:46.286Z,21.92
2022-08-03T01:59:51.623Z,21.27
2022-08-03T02:04:57.481Z,21.77
2022-08-03T02:10:02.330Z,21.31
2022-08-03T02:15:08.376Z,21.27
2022-08-03T02:20:14.232Z,20.93
2022-08-03T02:25:17.541Z,20.72
2022-08-03T02:30:21.622Z,20.64
2022-08-03T02:35:25.343Z,21.01
2022-08-03T02:40:30.180Z,19.70
2022-08-03T02:45:37.023Z,20.89
2022-08-03T02:50:41.359Z,21.09
2022-08-03T02:55:46.011Z,21.46
2022-08-03T03:00:52.613Z,21.36
2022-08-03T03:05:57.751Z,21.27
2022-08-03T03:11:02.469Z,21.52
2022-08-03T03:16:07.225Z,21.53
2022-08-03T03:21:11.664Z,20.56
2022-08-03T03:26:16.572Z,19.79
2022-08-03T03:31:19.333Z,20.49
2022-08-03T03:36:22.066Z,20.95
2022-08-03T03:41:25.300Z,21.23
2022-08-03T03:46:28.107Z,20.99
2022-08-03T03:51:31.398Z,20.67
2022-08-03T03:56:34.315Z,21.15
2022-08-03T04:01:37.392Z,21.29
2022-08-03T04:06:58.448Z,20.96
2022-08-03T04:12:02.676Z,20.78
2022-08-03T04:17:10.566Z,20.87
2022-08-03T04:22:17.792Z,20.06
2022-08-03T04:27:28.573Z,20.93
2022-08-03T04:32:32.194Z,20.67
2022-08-03T04:37:47.163Z,20.73
2022-08-03T04:42:51.192Z,20.88
2022-08-03T04:47:55.386Z,20.96
2022-08-03T04:52:57.996Z,21.29
2022-08-03T04:58:03.525Z,20.59
2022-08-03T05:03:20.068Z,20.34
2022-08-03T05:08:28.064Z,21.47
2022-08-03T05:13:31.227Z,20.46
2022-08-03T05:18:33.930Z,21.13
2022-08-03T05:23:36.941Z,21.28
2022-08-03T05:28:40.388Z,21.83
2022-08-03T05:33:53.771Z,22.05
2022-08-03T05:39:00.853Z,21.66
2022-08-03T05:44:05.634Z,22.20
2022-08-03T05:49:08.394Z,21.66
2022-08-03T05:54:11.102Z,22.55
2022-08-03T05:59:36.888Z,22.33
2022-08-03T06:04:36.772Z,23.22
2022-08-03T06:10:35.200Z,23.76
2022-08-03T06:15:01.865Z,22.92
2022-08-03T06:20:04.860Z,23.40
2022-08-03T06:25:10.213Z,24.30
2022-08-03T06:30:19.352Z,24.47
2022-08-03T06:35:23.773Z,24.96
2022-08-03T06:40:31.978Z,25.25
2022-08-03T06:45:35.380Z,25.29
2022-08-03T06:50:40.254Z,25.65
2022-08-03T06:55:43.735Z,25.39
2022-08-03T07:00:46.296Z,25.52
2022-08-03T07:05:48.967Z,24.69
2022-08-03T07:10:51.926Z,25.88
2022-08-03T07:15:56.133Z,26.20
2022-08-03T07:20:59.723Z,26.44
2022-08-03T07:26:02.266Z,26.52
2022-08-03T07:31:04.975Z,26.60
2022-08-03T07:36:07.799Z,26.81
2022-08-03T07:41:10.531Z,26.68
2022-08-03T07:46:13.226Z,27.28
2022-08-03T07:51:15.911Z,26.36
2022-08-03T07:56:18.760Z,27.17
2022-08-03T08:01:21.901Z,27.70
2022-08-03T08:06:24.805Z,27.16
2022-08-03T08:11:28.895Z,27.17
2022-08-03T08:16:31.959Z,28.00
2022-08-03T08:21:53.000Z,28.85
2022-08-03T08:26:59.326Z,28.97
2022-08-03T08:32:02.009Z,29.34
2022-08-03T08:37:04.765Z,28.66
2022-08-03T08:42:07.529Z,29.41
2022-08-03T08:47:10.410Z,30.05
2022-08-03T08:52:25.441Z,29.60
2022-08-03T08:57:43.102Z,30.04
2022-08-03T09:02:47.501Z,29.68
2022-08-03T09:07:50.481Z,28.88
2022-08-03T09:12:54.884Z,30.47
2022-08-03T12:11:51.062Z,33.28
2022-08-03T12:26:57.240Z,32.94
2022-08-03T13:48:47.039Z,31.63
2022-08-03T13:58:35.854Z,32.51
2022-08-03T14:51:51.328Z,31.82
2022-08-03T14:56:57.032Z,32.26
2022-08-03T15:07:09.934Z,31.83
2022-08-03T15:12:13.664Z,32.35
2022-08-03T15:17:17.273Z,31.33
2022-08-03T15:22:25.359Z,31.66
2022-08-03T15:27:38.032Z,31.59
2022-08-03T15:33:01.221Z,31.44
2022-08-03T15:38:09.091Z,31.16
2022-08-03T15:43:13.131Z,31.70
2022-08-03T15:48:16.412Z,31.01
2022-08-03T15:53:19.774Z,32.03
2022-08-03T16:03:37.995Z,31.10
2022-08-03T16:08:41.529Z,30.66
2022-08-03T16:14:14.141Z,30.96
2022-08-03T16:19:09.716Z,30.95
2022-08-03T16:24:15.824Z,29.94
2022-08-03T16:29:23.234Z,30.14
2022-08-03T16:34:27.260Z,30.97
2022-08-03T16:39:31.268Z,31.00
2022-08-03T16:44:34.425Z,31.05
2022-08-03T16:49:53.788Z,29.95
2022-08-03T16:59:43.847Z,32.04
2022-08-03T17:04:48.556Z,32.11
2022-08-03T17:09:52.827Z,33.02
2022-08-03T17:15:00.137Z,32.52
2022-08-03T17:29:36.846Z,32.25
2022-08-03T18:22:54.353Z,28.96
2022-08-03T18:27:58.193Z,28.60
2022-08-03T18:34:18.285Z,27.39
2022-08-03T18:38:26.518Z,28.05
2022-08-03T18:43:46.521Z,25.64
2022-08-03T18:49:00.960Z,24.73
2022-08-03T18:54:46.071Z,24.63
2022-08-03T18:59:59.599Z,24.58
2022-08-03T19:05:09.062Z,23.52
2022-08-03T19:10:15.823Z,25.03
2022-08-03T19:15:36.428Z,23.79
2022-08-03T19:20:41.602Z,23.97
2022-08-03T19:25:49.799Z,23.79
2022-08-03T19:30:56.090Z,23.48
2022-08-03T19:36:00.203Z,22.92
2022-08-03T19:41:04.309Z,22.91
2022-08-03T19:46:13.209Z,22.06
2022-08-03T19:51:17.548Z,22.18
2022-08-03T19:56:30.800Z,23.08
2022-08-03T20:01:50.696Z,22.24
2022-08-03T20:06:57.909Z,21.88
2022-08-03T20:12:00.962Z,21.47
2022-08-03T20:17:04.323Z,21.60
2022-08-03T20:22:14.436Z,21.14
2022-08-03T20:27:30.199Z,21.27
2022-08-03T20:32:35.107Z,21.78
2022-08-03T20:37:38.467Z,22.03
2022-08-03T20:42:45.288Z,21.52
2022-08-03T20:47:50.559Z,21.70
2022-08-03T20:52:54.689Z,21.59
2022-08-03T20:57:58.572Z,22.24
2022-08-03T21:03:03.513Z,21.04
2022-08-03T21:08:08.196Z,21.63
2022-08-03T21:13:24.546Z,21.21
2022-08-03T21:18:31.606Z,21.11
2022-08-03T21:23:48.326Z,20.58
2022-08-03T21:28:58.383Z,21.30
2022-08-03T21:34:05.166Z,21.21
2022-08-03T21:39:11.507Z,20.76
2022-08-03T21:44:17.916Z,20.71
2022-08-03T21:50:07.141Z,21.19
2022-08-03T21:54:55.334Z,21.16
2022-08-03T22:00:15.813Z,20.95
2022-08-03T22:05:42.713Z,20.76
2022-08-03T22:10:48.376Z,21.09
2022-08-03T22:15:52.643Z,20.38
2022-08-03T22:20:56.667Z,20.29
2022-08-03T22:26:04.300Z,20.69
2022-08-03T22:31:30.524Z,20.55
2022-08-03T22:36:32.167Z,18.83
2022-08-03T22:41:35.474Z,20.78
2022-08-03T22:46:39.601Z,20.44
2022-08-03T22:51:43.907Z,20.52
2022-08-03T22:56:47.748Z,19.18
2022-08-03T23:01:52.462Z,20.78
2022-08-03T23:06:57.409Z,20.77
2022-08-03T23:12:02.182Z,20.87
2022-08-03T23:17:08.651Z,20.74
2022-08-03T23:22:27.651Z,20.08
2022-08-03T23:27:34.175Z,20.48
2022-08-03T23:32:38.291Z,20.09
2022-08-03T23:38:21.475Z,20.61
2022-08-03T23:43:06.193Z,19.51
2022-08-03T23:48:09.476Z,20.22
2022-08-03T23:53:21.970Z,20.42
2022-08-03T23:58:31.283Z,20.78
